Metar z połowy godziny Komunikat METAR ze strony awiacja.imgw.pl Metar Mil EPMB METAR EPMB 271400Z 28005KT 9999 FEW007 OVC041 03/02 Q0995 RMK 030 096 8/2=